^^
Datos históricos de la estación: Murcia-Puente Tocinos
Diario Informe para Agosto 5, 2019 Unidades:  Métrico    Ingés   Ambas
Diario Semanal Mensual Anual
  Máxima: Mínima: Promedio:
Temperatura: 29 °C 22.6 °C 25.2 °C
Punto de rocio: 21.1 °C 17.7 °C 19.8 °C
Humedad: 86.2% 51.2% 73%
Velocidad viento: 16.4km/h 0km/h 6.2km/h
Racha viento: 35.4km/h - -
Viento- - Este
Presión: 1016.6 hPa 1014.2 hPa -
Precipitación: 0.0 mm    
 
 
Tabla de datos para Agosto 5, 2019
Hora Temperatura Punto de rocio Presión Viento Velocidad viento Racha viento Humedad Intensidad lluvia(por hora) Nubes
00:04 25.4 °C 20.2 °C 1014.9 hPa Este 4.7 km/h 9.7 km/h 73% 0.0 mm
00:09 25.3 °C 20.3 °C 1014.9 hPa ENE 4.7 km/h 8 km/h 73.9% 0.0 mm
00:14 25.3 °C 20.3 °C 1014.9 hPa Este 4.7 km/h 8 km/h 74% 0.0 mm
00:19 25.3 °C 20.3 °C 1015.0 hPa ENE 4.4 km/h 8 km/h 74% 0.0 mm
00:24 25.2 °C 20.2 °C 1015.0 hPa NE 3.9 km/h 9.3 km/h 74% 0.0 mm
00:29 25.2 °C 20.4 °C 1015.0 hPa NE 4.2 km/h 9.7 km/h 74.7% 0.0 mm
00:34 25.1 °C 20.3 °C 1015.0 hPa NE 5 km/h 11.1 km/h 75% 0.0 mm
00:39 24.9 °C 20.3 °C 1014.9 hPa NE 5.6 km/h 11.3 km/h 75.6% 0.0 mm
00:44 24.8 °C 20.3 °C 1014.9 hPa NE 6.9 km/h 13.7 km/h 76% 0.0 mm
00:49 24.7 °C 20.4 °C 1014.9 hPa NE 7.4 km/h 14.5 km/h 76.8% 0.0 mm
00:54 24.7 °C 20.4 °C 1014.8 hPa NE 8.4 km/h 12.9 km/h 77% 0.0 mm
00:59 24.6 °C 20.3 °C 1014.8 hPa NE 8.1 km/h 11.9 km/h 77% 0.0 mm
01:04 24.6 °C 20.4 °C 1014.8 hPa NE 7.6 km/h 11.3 km/h 77.8% 0.0 mm
01:09 24.5 °C 20.4 °C 1014.8 hPa NE 7.6 km/h 11.3 km/h 78% 0.0 mm
01:14 24.5 °C 20.4 °C 1014.8 hPa NE 7.6 km/h 12.2 km/h 78% 0.0 mm
01:19 24.4 °C 20.3 °C 1014.8 hPa NE 7.2 km/h 13 km/h 78% 0.0 mm
01:24 24.3 °C 20.4 °C 1014.7 hPa NE 6.5 km/h 14.8 km/h 78.4% 0.0 mm
01:29 24.3 °C 20.4 °C 1014.7 hPa NE 6.8 km/h 14.5 km/h 79% 0.0 mm
01:34 24.2 °C 20.3 °C 1014.8 hPa NE 7.6 km/h 11.9 km/h 79% 0.0 mm
01:39 24.2 °C 20.4 °C 1014.8 hPa NE 7.3 km/h 11.3 km/h 79.3% 0.0 mm
01:44 24.1 °C 20.4 °C 1014.8 hPa NE 6.9 km/h 13.7 km/h 80% 0.0 mm
01:49 24 °C 20.4 °C 1014.8 hPa NE 6.8 km/h 14.5 km/h 80% 0.0 mm
01:54 23.9 °C 20.4 °C 1014.6 hPa NE 6.5 km/h 14.8 km/h 80.8% 0.0 mm
01:58 23.9 °C 20.4 °C 1014.6 hPa NE 6.6 km/h 14.5 km/h 81% 0.0 mm
02:04 23.8 °C 20.3 °C 1014.6 hPa NE 7.6 km/h 13 km/h 81% 0.0 mm
02:09 23.8 °C 20.3 °C 1014.5 hPa NNE 7.2 km/h 12.9 km/h 81% 0.0 mm
02:14 23.8 °C 20.3 °C 1014.5 hPa NE 6.5 km/h 11.3 km/h 81% 0.0 mm
02:19 23.7 °C 20.3 °C 1014.5 hPa NE 6 km/h 9.3 km/h 81.4% 0.0 mm
02:24 23.6 °C 20.4 °C 1014.5 hPa NE 5 km/h 9.7 km/h 82% 0.0 mm
02:29 23.6 °C 20.3 °C 1014.5 hPa NNE 5 km/h 9.7 km/h 82% 0.0 mm
02:34 23.6 °C 20.3 °C 1014.5 hPa North 5 km/h 8 km/h 82% 0.0 mm
02:39 23.5 °C 20.3 °C 1014.5 hPa NNE 5 km/h 8 km/h 82.3% 0.0 mm
02:44 23.4 °C 20.3 °C 1014.5 hPa ENE 5 km/h 8 km/h 83% 0.0 mm
02:49 23.4 °C 20.3 °C 1014.5 hPa NE 4.4 km/h 8 km/h 83% 0.0 mm
02:54 23.4 °C 20.3 °C 1014.4 hPa NE 3.2 km/h 5.8 km/h 83% 0.0 mm
02:59 23.4 °C 20.3 °C 1014.4 hPa ENE 2.9 km/h 6.4 km/h 83% 0.0 mm
03:04 23.4 °C 20.3 °C 1014.4 hPa North 2.2 km/h 7.4 km/h 83% 0.0 mm
03:09 23.4 °C 20.3 °C 1014.4 hPa North 2.6 km/h 8 km/h 83% 0.0 mm
03:14 23.4 °C 20.3 °C 1014.4 hPa North 3.2 km/h 5.8 km/h 83% 0.0 mm
03:19 23.4 °C 20.3 °C 1014.4 hPa North 2.9 km/h 6.4 km/h 83% 0.0 mm
03:24 23.4 °C 20.3 °C 1014.3 hPa North 2.2 km/h 2.3 km/h 83% 0.0 mm
03:29 23.5 °C 20.4 °C 1014.3 hPa North 1.5 km/h 3.9 km/h 83% 0.0 mm
03:34 23.5 °C 20.4 °C 1014.3 hPa Calm   3.2 km/h 83% 0.0 mm
03:39 23.4 °C 20.3 °C 1014.3 hPa Calm   3.9 km/h 83% 0.0 mm
03:44 23.4 °C 20.3 °C 1014.3 hPa Calm   6.4 km/h 83% 0.0 mm
03:49 23.3 °C 20.2 °C 1014.4 hPa NE 1.2 km/h 8 km/h 83% 0.0 mm
03:54 23.3 °C 20.2 °C 1014.4 hPa NNE 3.9 km/h 8.4 km/h 83% 0.0 mm
03:59 23.3 °C 20.3 °C 1014.4 hPa NE 4.3 km/h 9.5 km/h 83.7% 0.0 mm
04:04 23.2 °C 20.3 °C 1014.4 hPa NE 5 km/h 9.7 km/h 84% 0.0 mm
04:09 23.2 °C 20.3 °C 1014.2 hPa North 4.6 km/h 10.3 km/h 84% 0.0 mm
04:14 23.1 °C 20.2 °C 1014.2 hPa NNE 3.9 km/h 11.3 km/h 84.2% 0.0 mm
04:19 22.9 °C 20.2 °C 1014.2 hPa NE 4.9 km/h 9.7 km/h 85% 0.0 mm
04:24 22.8 °C 20.2 °C 1014.2 hPa NE 6.9 km/h 9.7 km/h 85% 0.0 mm
04:29 22.8 °C 20.2 °C 1014.2 hPa ENE 6.3 km/h 8 km/h 85% 0.0 mm
04:34 22.8 °C 20.2 °C 1014.2 hPa NE 5 km/h 8 km/h 85% 0.0 mm
04:39 22.8 °C 20.2 °C 1014.2 hPa ENE 4.1 km/h 6.4 km/h 85% 0.0 mm
04:44 22.8 °C 20.2 °C 1014.2 hPa ENE 2.2 km/h 5.8 km/h 85% 0.0 mm
04:49 22.8 °C 20.2 °C 1014.3 hPa ENE 2.5 km/h 6.4 km/h 85% 0.0 mm
04:54 22.8 °C 20.2 °C 1014.3 hPa ENE 2.9 km/h 6.4 km/h 85% 0.0 mm
04:59 22.8 °C 20.2 °C 1014.3 hPa ENE 1.9 km/h 3.9 km/h 85% 0.0 mm
05:04 22.9 °C 20.2 °C 1014.3 hPa Calm   3.9 km/h 85% 0.0 mm
05:09 22.9 °C 20.2 °C 1014.3 hPa ENE 0.7 km/h 3.9 km/h 85% 0.0 mm
05:14 23 °C 20.3 °C 1014.3 hPa ENE 2.2 km/h 3.7 km/h 85% 0.0 mm
05:19 23 °C 20.2 °C 1014.5 hPa ENE 1.5 km/h 3.2 km/h 84.1% 0.0 mm
05:24 23 °C 20.2 °C 1014.5 hPa Calm     84% 0.0 mm
05:29 23 °C 20.2 °C 1014.5 hPa Calm     84% 0.0 mm
05:34 23 °C 20.1 °C 1014.5 hPa Calm     84% 0.0 mm
05:39 22.9 °C 20.1 °C 1014.4 hPa Calm     84% 0.0 mm
05:44 22.8 °C 20.2 °C 1014.4 hPa Calm     84.9% 0.0 mm
05:49 22.8 °C 20.2 °C 1014.4 hPa NE 0.7 km/h 7.4 km/h 85% 0.0 mm
05:54 22.8 °C 20.2 °C 1014.3 hPa NE 2.2 km/h 8 km/h 85% 0.0 mm
05:59 22.7 °C 20.1 °C 1014.3 hPa NNE 2.8 km/h 6.4 km/h 85% 0.0 mm
06:04 22.7 °C 20.1 °C 1014.5 hPa NE 3.9 km/h 7.4 km/h 85% 0.0 mm
06:09 22.7 °C 20.1 °C 1014.5 hPa NE 4.1 km/h 8 km/h 85.3% 0.0 mm
06:14 22.7 °C 20.2 °C 1014.5 hPa NE 4.7 km/h 8 km/h 86% 0.0 mm
06:19 22.7 °C 20.2 °C 1014.5 hPa NE 4.2 km/h 6.4 km/h 86% 0.0 mm
06:24 22.7 °C 20.2 °C 1014.5 hPa NNE 3.2 km/h 7.4 km/h 86% 0.0 mm
06:29 22.6 °C 20.1 °C 1014.5 hPa NNE 3.4 km/h 8 km/h 86% 0.0 mm
06:34 22.6 °C 20.1 °C 1014.5 hPa NNE 3.9 km/h 8 km/h 86% 0.0 mm
06:39 22.6 °C 20.1 °C 1014.5 hPa NNE 3.6 km/h 6.4 km/h 86% 0.0 mm
06:44 22.6 °C 20.1 °C 1014.5 hPa NNE 3.2 km/h 4.8 km/h 86% 0.0 mm
06:49 22.6 °C 20.1 °C 1014.6 hPa NNE 2.1 km/h   86% 0.0 mm
06:54 22.6 °C 20.1 °C 1014.6 hPa Calm     86% 0.0 mm
06:59 22.7 °C 20.2 °C 1014.6 hPa Calm   5.6 km/h 86% 0.0 mm
07:04 22.7 °C 20.2 °C 1014.7 hPa Calm   5.6 km/h 86% 0.0 mm
07:09 22.7 °C 20.2 °C 1014.7 hPa NE 0.9 km/h 8.4 km/h 86% 0.0 mm
07:14 22.6 °C 20.1 °C 1014.7 hPa NE 2.9 km/h 8.4 km/h 86% 0.0 mm
07:19 22.6 °C 20.1 °C 1014.9 hPa NNE 3.5 km/h 8 km/h 86% 0.0 mm
07:24 22.6 °C 20.1 °C 1014.9 hPa NNE 4.7 km/h 8 km/h 86% 0.0 mm
07:29 22.6 °C 20.1 °C 1014.9 hPa NNE 3.9 km/h 4.8 km/h 86% 0.0 mm
07:34 22.6 °C 20.1 °C 1015.1 hPa NNE 2.2 km/h 4.7 km/h 86% 0.0 mm
07:39 22.6 °C 20.1 °C 1015.1 hPa NNE 1.5 km/h 4.8 km/h 86% 0.0 mm
07:44 22.7 °C 20.2 °C 1015.1 hPa Calm   4.8 km/h 86% 0.0 mm
07:49 22.7 °C 20.2 °C 1015.1 hPa Calm   3.2 km/h 86% 0.0 mm
07:54 22.7 °C 20.2 °C 1015.1 hPa Calm     86% 0.0 mm
07:59 22.7 °C 20.2 °C 1015.1 hPa Calm     86% 0.0 mm
08:04 22.7 °C 20.2 °C 1015.2 hPa Calm     86% 0.0 mm
08:09 22.8 °C 20.4 °C 1015.2 hPa Calm     86.2% 0.0 mm
08:14 22.8 °C 20.3 °C 1015.2 hPa Calm     86% 0.0 mm
08:19 22.7 °C 20.2 °C 1015.3 hPa Calm     86% 0.0 mm
08:24 22.7 °C 20.2 °C 1015.3 hPa Calm     86% 0.0 mm
08:29 22.7 °C 20.2 °C 1015.3 hPa Calm   2.3 km/h 86% 0.0 mm
08:34 22.8 °C 20.3 °C 1015.4 hPa Calm   1.6 km/h 86% 0.0 mm
08:39 22.8 °C 20.3 °C 1015.4 hPa Calm     86% 0.0 mm
08:44 22.9 °C 20.2 °C 1015.4 hPa Calm   7.4 km/h 85% 0.0 mm
08:49 22.9 °C 20.2 °C 1015.4 hPa Sur 1 km/h 8 km/h 85% 0.0 mm
08:54 22.9 °C 20.2 °C 1015.2 hPa Sur 3.2 km/h 8 km/h 84.6% 0.0 mm
08:59 23.1 °C 20.2 °C 1015.2 hPa SE 3.1 km/h 7.4 km/h 84% 0.0 mm
09:04 23.1 °C 20.2 °C 1015.2 hPa ESE 2.9 km/h 8 km/h 84% 0.0 mm
09:09 23.2 °C 20.3 °C 1015.2 hPa SE 3.5 km/h 8 km/h 84% 0.0 mm
09:14 23.2 °C 20.3 °C 1015.2 hPa SSE 4.7 km/h 8 km/h 84% 0.0 mm
09:19 23.3 °C 20.3 °C 1015.3 hPa SE 4.4 km/h 8 km/h 83.5% 0.0 mm
09:24 23.4 °C 20.3 °C 1015.3 hPa SE 3.9 km/h 8 km/h 83% 0.0 mm
09:29 23.5 °C 20.5 °C 1015.3 hPa ESE 3.9 km/h 8 km/h 83% 0.0 mm
09:34 23.6 °C 20.5 °C 1015.3 hPa Sur 3.9 km/h 8 km/h 82.5% 0.0 mm
09:39 23.7 °C 20.4 °C 1015.3 hPa Sur 3.6 km/h 8 km/h 82% 0.0 mm
09:44 23.7 °C 20.5 °C 1015.3 hPa Sur 2.9 km/h 6.4 km/h 82% 0.0 mm
09:49 23.8 °C 20.5 °C 1015.4 hPa SSE 2.9 km/h 6.4 km/h 81.5% 0.0 mm
09:54 23.9 °C 20.5 °C 1015.4 hPa SSE 2.9 km/h 4.8 km/h 81% 0.0 mm
09:59 24.1 °C 20.6 °C 1015.4 hPa Sur 1.8 km/h 3.7 km/h 81% 0.0 mm
10:04 24.2 °C 20.6 °C 1015.6 hPa Calm   3.9 km/h 80.4% 0.0 mm
10:09 24.3 °C 20.6 °C 1015.6 hPa ONO 0.7 km/h 5.8 km/h 80% 0.0 mm
10:14 24.4 °C 20.7 °C 1015.6 hPa NO 2.2 km/h 7.4 km/h 79.9% 0.0 mm
10:19 24.4 °C 20.7 °C 1015.6 hPa NO 2.5 km/h 8 km/h 80% 0.0 mm
10:24 24.5 °C 20.7 °C 1015.6 hPa NNO 2.9 km/h 3.2 km/h 79.1% 0.0 mm
10:29 24.6 °C 20.7 °C 1015.6 hPa NNO 2 km/h   79% 0.0 mm
10:34 24.6 °C 20.7 °C 1015.7 hPa Calm     79% 0.0 mm
10:39 24.7 °C 20.8 °C 1015.7 hPa Calm     79% 0.0 mm
10:44 24.8 °C 20.7 °C 1015.7 hPa Calm   7.4 km/h 78.2% 0.0 mm
10:49 24.8 °C 20.7 °C 1015.9 hPa NNO 1 km/h 8 km/h 78% 0.0 mm
10:54 24.8 °C 20.7 °C 1015.9 hPa NNE 2.9 km/h 5.8 km/h 78% 0.0 mm
10:59 24.8 °C 20.7 °C 1015.9 hPa NE 2.9 km/h 6.4 km/h 78% 0.0 mm
11:04 24.9 °C 20.8 °C 1015.9 hPa NE 2.9 km/h 4.8 km/h 78% 0.0 mm
11:09 25.1 °C 21 °C 1015.8 hPa NNE 2.7 km/h 5.6 km/h 77.9% 0.0 mm
11:14 25.2 °C 20.9 °C 1015.8 hPa NNE 2.2 km/h 7.4 km/h 77% 0.0 mm
11:19 25.3 °C 20.9 °C 1015.8 hPa NNE 2.2 km/h 8 km/h 76.9% 0.0 mm
11:24 25.4 °C 20.9 °C 1015.8 hPa NNE 2.2 km/h 7.6 km/h 76.2% 0.0 mm
11:29 25.6 °C 20.9 °C 1015.8 hPa ONO 2.5 km/h 8 km/h 75.3% 0.0 mm
11:34 25.8 °C 21.1 °C 1015.9 hPa NNO 2.9 km/h 8 km/h 75.6% 0.0 mm
11:39 26.1 °C 21 °C 1015.9 hPa SE 3.2 km/h 8.4 km/h 73.3% 0.0 mm
11:44 26.4 °C 20.9 °C 1015.9 hPa SSO 3.9 km/h 9.5 km/h 71.9% 0.0 mm
11:49 26.5 °C 20.8 °C 1015.9 hPa SSO 4.5 km/h 10 km/h 71.1% 0.0 mm
11:54 26.5 °C 20.9 °C 1015.8 hPa ESE 5.8 km/h 9.7 km/h 71% 0.0 mm
11:59 26.5 °C 20.9 °C 1015.8 hPa Este 5.8 km/h 9.7 km/h 71.5% 0.0 mm
12:04 26.4 °C 20.6 °C 1015.9 hPa Este 5.8 km/h 11.1 km/h 70.4% 0.0 mm
12:09 26.5 °C 20.8 °C 1015.9 hPa Este 5.5 km/h 11.3 km/h 70.9% 0.0 mm
12:14 26.6 °C 20.9 °C 1015.9 hPa ESE 5 km/h 9.7 km/h 71% 0.0 mm
12:19 26.6 °C 20.8 °C 1015.9 hPa SE 5 km/h 11.9 km/h 70.5% 0.0 mm
12:24 26.6 °C 20.7 °C 1015.9 hPa SE 5 km/h 11.3 km/h 70.3% 0.0 mm
12:29 26.5 °C 20.7 °C 1015.9 hPa Sur 5.3 km/h 11.9 km/h 70.6% 0.0 mm
12:34 26.5 °C 20.6 °C 1015.9 hPa Sur 5.8 km/h 13 km/h 70% 0.0 mm
12:39 26.5 °C 20.6 °C 1015.9 hPa SSE 6.1 km/h 12.9 km/h 70.2% 0.0 mm
12:44 26.7 °C 20.8 °C 1015.9 hPa SE 6.9 km/h 11.3 km/h 69.8% 0.0 mm
12:49 27 °C 20.7 °C 1015.9 hPa SE 6.9 km/h 16.4 km/h 68.3% 0.0 mm
12:54 27.2 °C 20.6 °C 1015.8 hPa SE 6.9 km/h 16.7 km/h 67.3% 0.0 mm
12:59 27.4 °C 20.6 °C 1015.8 hPa SSE 8.2 km/h 16.7 km/h 66.6% 0.0 mm
13:04 27.4 °C 20.5 °C 1015.8 hPa SE 10.3 km/h 16.1 km/h 66% 0.0 mm
13:09 27.5 °C 20.6 °C 1015.8 hPa SE 10 km/h 16.1 km/h 65.9% 0.0 mm
13:14 27.8 °C 20.3 °C 1015.8 hPa SSE 9.5 km/h 17.2 km/h 63.9% 0.0 mm
13:19 27.7 °C 20.1 °C 1015.8 hPa SE 9.5 km/h 17.7 km/h 63.2% 0.0 mm
13:24 27.6 °C 20.1 °C 1015.8 hPa SSE 9.5 km/h 15.6 km/h 63.6% 0.0 mm
13:29 27.5 °C 20 °C 1015.8 hPa Sur 9.2 km/h 16.1 km/h 63.9% 0.0 mm
13:34 27.5 °C 20 °C 1015.8 hPa SSE 8.7 km/h 18.5 km/h 63.7% 0.0 mm
13:39 27.7 °C 19.9 °C 1015.8 hPa SE 9.1 km/h 19.3 km/h 62.5% 0.0 mm
13:44 27.7 °C 20 °C 1015.8 hPa Este 10 km/h 19.3 km/h 62.8% 0.0 mm
13:49 28 °C 19.9 °C 1015.8 hPa ESE 9.2 km/h 20.9 km/h 61.5% 0.0 mm
13:54 28 °C 19.9 °C 1015.7 hPa SE 7.6 km/h 20.9 km/h 61.5% 0.0 mm
13:59 28.2 °C 19.9 °C 1015.7 hPa Sur 7.6 km/h 14.8 km/h 61% 0.0 mm
14:04 28.3 °C 19.8 °C 1015.7 hPa SE 7.6 km/h 17.2 km/h 60.1% 0.0 mm
14:09 28.3 °C 19.8 °C 1015.5 hPa SE 8.2 km/h 17.7 km/h 60% 0.0 mm
14:14 28.2 °C 19.7 °C 1015.5 hPa ESE 9.5 km/h 16.1 km/h 60% 0.0 mm
14:19 28.2 °C 19.8 °C 1015.5 hPa ESE 9.1 km/h 18.5 km/h 60.1% 0.0 mm
14:24 28.2 °C 19.8 °C 1015.4 hPa ESE 8.4 km/h 24.5 km/h 60.7% 0.0 mm
14:29 28 °C 19.9 °C 1015.4 hPa Este 9.9 km/h 24.1 km/h 61.4% 0.0 mm
14:34 28.1 °C 19.7 °C 1015.5 hPa ESE 13 km/h 22.5 km/h 60.3% 0.0 mm
14:39 27.9 °C 19.4 °C 1015.5 hPa ESE 12.4 km/h 20.1 km/h 60.1% 0.0 mm
14:44 27.9 °C 19.5 °C 1015.5 hPa ESE 11.1 km/h 22.5 km/h 60.2% 0.0 mm
14:49 28 °C 19.5 °C 1015.5 hPa SSE 10.8 km/h 22.5 km/h 59.9% 0.0 mm
14:54 28.2 °C 19.7 °C 1015.3 hPa SE 10.3 km/h 17.2 km/h 59.9% 0.0 mm
14:59 28.3 °C 19.5 °C 1015.3 hPa ESE 10 km/h 20.4 km/h 59.1% 0.0 mm
15:04 28.3 °C 19.5 °C 1015.3 hPa ESE 9.5 km/h 20.9 km/h 59% 0.0 mm
15:09 28.3 °C 19.5 °C 1015.0 hPa SE 9.6 km/h 19.3 km/h 59% 0.0 mm
15:14 28.3 °C 19.8 °C 1015.0 hPa ESE 10 km/h 24.1 km/h 60% 0.0 mm
15:19 28.2 °C 19.6 °C 1015.0 hPa SE 11.1 km/h 24.1 km/h 59.8% 0.0 mm
15:24 28.1 °C 19.6 °C 1015.0 hPa ESE 13.7 km/h 20.9 km/h 60% 0.0 mm
15:29 28.2 °C 19.7 °C 1015.0 hPa ESE 12.6 km/h 20.9 km/h 60% 0.0 mm
15:34 28.2 °C 19.7 °C 1015.0 hPa Este 10.3 km/h 20.9 km/h 60% 0.0 mm
15:39 28.1 °C 19.5 °C 1015.0 hPa Este 10.6 km/h 22.5 km/h 59.4% 0.0 mm
15:44 28.1 °C 19.3 °C 1015.0 hPa ENE 11.1 km/h 22.5 km/h 59% 0.0 mm
15:49 28.1 °C 19.1 °C 1015.0 hPa Este 10.6 km/h 19.3 km/h 58.3% 0.0 mm
15:54 28.2 °C 18.9 °C 1014.9 hPa Este 9.5 km/h 19.3 km/h 57.3% 0.0 mm
15:59 28.3 °C 19 °C 1014.9 hPa ESE 8.8 km/h 15.6 km/h 57.2% 0.0 mm
16:04 28.6 °C 19 °C 1014.9 hPa ESE 7.6 km/h 20.1 km/h 56.1% 0.0 mm
16:09 28.7 °C 18.8 °C 1014.6 hPa ESE 8.4 km/h 23.3 km/h 55% 0.0 mm
16:14 28.7 °C 18.8 °C 1014.6 hPa Este 10 km/h 24.1 km/h 54.9% 0.0 mm
16:19 29 °C 18.7 °C 1014.6 hPa NE 10.7 km/h 25.9 km/h 53.7% 0.0 mm
16:24 28.9 °C 18.3 °C 1014.5 hPa NE 12.2 km/h 25.7 km/h 52.7% 0.0 mm
16:29 28.7 °C 18.2 °C 1014.5 hPa ENE 12.7 km/h 29.8 km/h 53% 0.0 mm
16:34 28.7 °C 18.2 °C 1014.5 hPa NE 13.7 km/h 30.6 km/h 53.3% 0.0 mm
16:39 28.7 °C 18.1 °C 1014.5 hPa NE 14.3 km/h 25.7 km/h 53% 0.0 mm
16:44 28.5 °C 18.1 °C 1014.5 hPa ENE 15.6 km/h 22.5 km/h 53.4% 0.0 mm
16:49 28.5 °C 18 °C 1014.5 hPa ENE 14.5 km/h 25.9 km/h 53% 0.0 mm
16:54 28.7 °C 17.8 °C 1014.4 hPa ENE 12.2 km/h 25.9 km/h 52% 0.0 mm
16:59 28.8 °C 17.7 °C 1014.4 hPa ENE 13.1 km/h 29.6 km/h 51.2% 0.0 mm
17:04 28.7 °C 17.8 °C 1014.4 hPa ENE 14.8 km/h 29 km/h 51.7% 0.0 mm
17:09 28.7 °C 18.1 °C 1014.2 hPa ENE 14.8 km/h 28.2 km/h 52.8% 0.0 mm
17:14 28.6 °C 18.2 °C 1014.2 hPa NE 14.8 km/h 27.8 km/h 53.4% 0.0 mm
17:19 28.4 °C 18.3 °C 1014.3 hPa ENE 15.3 km/h 27.8 km/h 54% 0.0 mm
17:24 28.3 °C 18.1 °C 1014.3 hPa ENE 16.4 km/h 31.7 km/h 54% 0.0 mm
17:29 28.1 °C 18.1 °C 1014.3 hPa ENE 15.5 km/h 32.2 km/h 54.8% 0.0 mm
17:34 28 °C 18.1 °C 1014.6 hPa NE 13.7 km/h 27.8 km/h 55% 0.0 mm
17:39 27.9 °C 18.1 °C 1014.6 hPa ENE 14 km/h 27.4 km/h 55.4% 0.0 mm
17:44 28.1 °C 18 °C 1014.6 hPa NE 14.8 km/h 26.2 km/h 54.4% 0.0 mm
17:49 28 °C 18.1 °C 1014.6 hPa ENE 14.2 km/h 25.7 km/h 55% 0.0 mm
17:54 27.9 °C 18 °C 1014.6 hPa ENE 13 km/h 24.1 km/h 54.8% 0.0 mm
17:59 27.8 °C 17.7 °C 1014.6 hPa NE 12.7 km/h 24.1 km/h 54.4% 0.0 mm
18:04 27.7 °C 17.8 °C 1014.8 hPa ENE 12.2 km/h 22.5 km/h 55% 0.0 mm
18:09 27.8 °C 17.9 °C 1014.8 hPa ENE 11.9 km/h 26.2 km/h 55% 0.0 mm
18:14 27.6 °C 17.9 °C 1014.8 hPa NE 11.1 km/h 25.9 km/h 55.4% 0.0 mm
18:19 27.6 °C 18.1 °C 1014.8 hPa NE 12 km/h 32.8 km/h 56% 0.0 mm
18:24 27.5 °C 18.1 °C 1014.8 hPa ENE 14 km/h 33.8 km/h 56.5% 0.0 mm
18:29 27.6 °C 18 °C 1014.8 hPa NE 14 km/h 25.7 km/h 56% 0.0 mm
18:34 27.4 °C 17.9 °C 1014.8 hPa NE 14 km/h 25.9 km/h 56.2% 0.0 mm
18:39 27.3 °C 18.1 °C 1014.8 hPa NE 14.5 km/h 31.5 km/h 57% 0.0 mm
18:44 27.2 °C 18 °C 1014.8 hPa NE 15.6 km/h 34.6 km/h 57.2% 0.0 mm
18:49 27.1 °C 18 °C 1014.8 hPa NE 15.8 km/h 35.4 km/h 57.4% 0.0 mm
18:54 27.1 °C 17.9 °C 1014.8 hPa ENE 16.1 km/h 27.4 km/h 57.1% 0.0 mm
18:59 27 °C 18 °C 1014.8 hPa NE 15.3 km/h 27.8 km/h 57.8% 0.0 mm
19:04 26.9 °C 17.9 °C 1014.8 hPa ENE 14 km/h 27.4 km/h 58% 0.0 mm
19:09 26.8 °C 17.8 °C 1014.7 hPa Este 13.3 km/h 24.1 km/h 58% 0.0 mm
19:14 26.8 °C 17.9 °C 1014.7 hPa ENE 11.9 km/h 19.3 km/h 58.2% 0.0 mm
19:19 26.8 °C 17.9 °C 1014.8 hPa ENE 11.1 km/h 24.1 km/h 58.4% 0.0 mm
19:24 26.7 °C 18.3 °C 1014.8 hPa NE 9.5 km/h 24.1 km/h 60.1% 0.0 mm
19:29 26.6 °C 18.5 °C 1014.8 hPa ENE 9.8 km/h 20.9 km/h 61% 0.0 mm
19:34 26.4 °C 18.4 °C 1014.9 hPa NE 10.3 km/h 24.1 km/h 61.3% 0.0 mm
19:39 26.3 °C 18.4 °C 1014.9 hPa ENE 11.4 km/h 27.8 km/h 62% 0.0 mm
19:44 26.2 °C 18.3 °C 1014.9 hPa ENE 13.7 km/h 27.4 km/h 62% 0.0 mm
19:49 26.2 °C 18.6 °C 1015.0 hPa NE 12 km/h 19.3 km/h 62.9% 0.0 mm
19:54 26.1 °C 18.6 °C 1015.0 hPa ENE 8.7 km/h 20.4 km/h 63.2% 0.0 mm
19:59 26 °C 18.7 °C 1015.0 hPa NE 9.3 km/h 20.9 km/h 64% 0.0 mm
20:04 25.9 °C 18.7 °C 1015.2 hPa ENE 10.3 km/h 19.3 km/h 64.2% 0.0 mm
20:09 25.9 °C 18.8 °C 1015.2 hPa NE 10 km/h 19.3 km/h 65% 0.0 mm
20:14 25.8 °C 18.7 °C 1015.2 hPa NE 9.5 km/h 19.3 km/h 65% 0.0 mm
20:19 25.8 °C 18.7 °C 1015.6 hPa NE 9.7 km/h 19.3 km/h 65% 0.0 mm
20:24 25.7 °C 18.7 °C 1015.6 hPa NE 10 km/h 19.3 km/h 65.4% 0.0 mm
20:29 25.7 °C 19 °C 1015.6 hPa NE 9.4 km/h 14.8 km/h 66.4% 0.0 mm
20:34 25.6 °C 19.1 °C 1015.6 hPa ENE 8.4 km/h 16.7 km/h 67.3% 0.0 mm
20:39 25.5 °C 19.2 °C 1015.4 hPa ENE 8.5 km/h 16.1 km/h 68% 0.0 mm
20:44 25.4 °C 19.2 °C 1015.4 hPa NE 8.7 km/h 12.9 km/h 68.4% 0.0 mm
20:49 25.3 °C 19.2 °C 1015.4 hPa NE 8.1 km/h 14.8 km/h 69% 0.0 mm
20:54 25.3 °C 19.4 °C 1015.3 hPa NE 6.9 km/h 14.5 km/h 69.8% 0.0 mm
20:59 25.2 °C 19.3 °C 1015.3 hPa ENE 6.8 km/h 11.3 km/h 70% 0.0 mm
21:04 25.2 °C 19.5 °C 1015.4 hPa NE 6.5 km/h 11.9 km/h 70.8% 0.0 mm
21:09 25.2 °C 19.5 °C 1015.4 hPa ENE 6.2 km/h 11.9 km/h 71% 0.0 mm
21:14 25.1 °C 19.7 °C 1015.4 hPa ENE 5.8 km/h 11.3 km/h 71.9% 0.0 mm
21:19 25.1 °C 19.7 °C 1015.6 hPa NE 6 km/h 13 km/h 72% 0.0 mm
21:24 24.9 °C 19.6 °C 1015.6 hPa NE 6.5 km/h 13 km/h 72.1% 0.0 mm
21:29 24.9 °C 19.7 °C 1015.6 hPa NE 6.6 km/h 12.9 km/h 73% 0.0 mm
21:34 24.9 °C 19.7 °C 1015.6 hPa NE 6.9 km/h 11.3 km/h 73% 0.0 mm
21:39 24.8 °C 19.7 °C 1015.5 hPa NE 6.9 km/h 11.3 km/h 73.2% 0.0 mm
21:44 24.8 °C 19.8 °C 1015.5 hPa NE 6.9 km/h 11.3 km/h 74% 0.0 mm
21:49 24.8 °C 19.8 °C 1015.8 hPa NE 6.8 km/h 9.7 km/h 74% 0.0 mm
21:54 24.8 °C 19.8 °C 1015.8 hPa NE 6.5 km/h 9.7 km/h 74% 0.0 mm
21:59 24.7 °C 19.8 °C 1015.8 hPa NE 5.8 km/h 9.7 km/h 74% 0.0 mm
22:04 24.7 °C 19.9 °C 1015.9 hPa ENE 4.6 km/h 9.5 km/h 74.6% 0.0 mm
22:09 24.7 °C 19.9 °C 1015.9 hPa Este 4.7 km/h 9.7 km/h 75% 0.0 mm
22:14 24.7 °C 19.9 °C 1015.9 hPa ENE 4.7 km/h 8 km/h 75% 0.0 mm
22:19 24.6 °C 19.9 °C 1016.2 hPa NE 4.7 km/h 9.5 km/h 75% 0.0 mm
22:24 24.6 °C 20 °C 1016.2 hPa NE 4.7 km/h 9.7 km/h 75.5% 0.0 mm
22:29 24.6 °C 20.1 °C 1016.2 hPa NE 4.8 km/h 9.7 km/h 76% 0.0 mm
22:34 24.6 °C 20.1 °C 1016.3 hPa NE 5 km/h 8 km/h 76% 0.0 mm
22:39 24.6 °C 20.1 °C 1016.3 hPa ENE 4.4 km/h 7.4 km/h 76% 0.0 mm
22:44 24.6 °C 20.1 °C 1016.3 hPa ESE 3.2 km/h 8.4 km/h 76% 0.0 mm
22:49 24.6 °C 20.1 °C 1016.3 hPa Este 3.2 km/h 8 km/h 76% 0.0 mm
22:54 24.6 °C 20.1 °C 1016.3 hPa Este 3.2 km/h 8 km/h 76% 0.0 mm
22:59 24.6 °C 20.1 °C 1016.3 hPa Este 2.8 km/h 6.4 km/h 76% 0.0 mm
23:04 24.6 °C 20.1 °C 1016.3 hPa Este 2.2 km/h 7.4 km/h 76% 0.0 mm
23:09 24.6 °C 20.1 °C 1016.3 hPa Este 2.5 km/h 8 km/h 76% 0.0 mm
23:14 24.6 °C 20.1 °C 1016.3 hPa ENE 3.2 km/h 8 km/h 76% 0.0 mm
23:19 24.6 °C 20.1 °C 1016.5 hPa NE 2.9 km/h 6.4 km/h 76.2% 0.0 mm
23:24 24.5 °C 20.2 °C 1016.5 hPa NE 2.2 km/h 4.7 km/h 77% 0.0 mm
23:29 24.5 °C 20.2 °C 1016.5 hPa NE 1.5 km/h 5.6 km/h 77% 0.0 mm
23:34 24.4 °C 20.1 °C 1016.6 hPa Calm   5.8 km/h 77% 0.0 mm
23:39 24.4 °C 20.1 °C 1016.6 hPa North 1.1 km/h 6.4 km/h 77% 0.0 mm
23:44 24.3 °C 20.1 °C 1016.6 hPa North 3.2 km/h 5.6 km/h 77% 0.0 mm
23:49 24.3 °C 20 °C 1016.6 hPa North 2.9 km/h 5.6 km/h 77% 0.0 mm
23:54 24.3 °C 20 °C 1016.6 hPa North 2.2 km/h 4.8 km/h 77% 0.0 mm
23:59 24.3 °C 20 °C 1016.6 hPa North 1.4 km/h 5.6 km/h 77% 0.0 mm
Murcia-Puente Tocinos, España
Compliments of Weather Underground - 3 mb

La estación de MeteoMurcia.com, publica sus datos en los siguientes proyectos:

Weather Underground PWS IMURCIAP2 Meteoclimatic www.awekas.at

W3Counter
Web Analytics